Time;durP1;ratioP1;P1;durP2;ratioP2;P2;SDS_P1;SDS_P2;PMS_P1;PMS_P2;Temp;Humidity;BMP_temperature;BMP_pressure;BME280_temperature;BME280_humidity;BME280_pressure;Samples;Min_cycle;Max_cycle;Signal;HPM_P1;HPM_P2
2023/05/13 00:03:33;;;;;;;10.40;8.77;;;;;;;8.65;70.78;100857.88;20728047;28;20197;-83
2023/05/13 00:13:36;;;;;;;12.40;9.80;;;;;;;8.52;72.30;100847.44;20748069;28;20228;-81
2023/05/13 00:23:38;;;;;;;9.67;8.67;;;;;;;8.39;70.59;100849.13;20803414;28;20251;-76
2023/05/13 00:33:40;;;;;;;11.63;9.00;;;;;;;8.22;71.26;100853.72;20808176;28;20255;-75
2023/05/13 00:43:42;;;;;;;9.30;8.40;;;;;;;7.86;72.93;100857.28;20819941;28;20213;-80
2023/05/13 00:53:44;;;;;;;10.93;8.77;;;;;;;7.97;71.77;100853.13;20803244;28;20275;-75
2023/05/13 01:03:52;;;;;;;9.20;8.27;;;;;;;8.10;71.72;100862.69;20802691;28;20184;-77
2023/05/13 01:14:07;;;;;;;11.57;8.07;;;;;;;7.54;73.13;100860.94;20773082;28;20228;-76
2023/05/13 01:24:09;;;;;;;11.97;8.13;;;;;;;7.81;71.62;100859.34;20736074;28;20589;-76
2023/05/13 01:34:12;;;;;;;10.03;9.00;;;;;;;7.39;73.24;100859.25;20751555;28;20276;-76
2023/05/13 01:44:15;;;;;;;13.17;9.17;;;;;;;7.92;71.67;100863.63;20720101;28;20209;-76
2023/05/13 01:54:18;;;;;;;10.20;9.20;;;;;;;7.37;74.57;100877.53;20710848;28;20217;-77
2023/05/13 02:04:26;;;;;;;11.23;9.00;;;;;;;7.19;72.52;100865.22;20737142;28;20490;-76
2023/05/13 02:14:29;;;;;;;12.97;8.87;;;;;;;7.30;73.77;100871.50;20747892;28;20233;-81
2023/05/13 02:24:33;;;;;;;9.53;7.80;;;;;;;6.69;74.45;100873.31;20804629;28;20659;-77
2023/05/13 02:34:35;;;;;;;11.37;8.40;;;;;;;6.53;74.17;100873.81;20799475;28;20283;-77
2023/05/13 02:44:39;;;;;;;9.60;8.60;;;;;;;6.97;73.20;100860.25;20832310;28;20289;-76
2023/05/13 02:54:41;;;;;;;10.00;9.03;;;;;;;6.92;72.62;100865.13;20794228;28;20229;-77
2023/05/13 03:04:43;;;;;;;10.57;9.20;;;;;;;6.70;73.39;100860.13;20811611;28;20200;-76
2023/05/13 03:14:46;;;;;;;10.70;9.43;;;;;;;6.64;73.11;100870.59;20761678;28;20225;-76
2023/05/13 03:24:48;;;;;;;10.13;9.13;;;;;;;6.80;72.61;100862.78;20747945;28;20248;-76
2023/05/13 03:34:51;;;;;;;11.57;9.83;;;;;;;6.57;74.35;100860.88;20746305;28;20311;-76
2023/05/13 03:44:55;;;;;;;10.60;9.23;;;;;;;6.65;71.79;100866.66;20732114;28;20209;-76
2023/05/13 03:54:58;;;;;;;10.67;9.57;;;;;;;6.59;73.06;100865.03;20740294;28;20221;-76
2023/05/13 04:05:00;;;;;;;9.77;8.87;;;;;;;6.64;72.10;100873.38;20727426;28;20662;-76
2023/05/13 04:15:03;;;;;;;10.57;9.43;;;;;;;6.39;72.79;100884.94;20743313;28;20569;-77
2023/05/13 04:25:05;;;;;;;16.03;11.70;;;;;;;6.16;74.49;100877.38;20725375;28;20194;-80
2023/05/13 04:35:08;;;;;;;11.50;9.40;;;;;;;6.45;74.58;100886.53;20708972;28;20224;-80
2023/05/13 04:45:11;;;;;;;13.23;9.60;;;;;;;6.60;72.87;100891.94;20731088;28;20213;-80
2023/05/13 04:55:14;;;;;;;16.33;11.83;;;;;;;6.62;73.19;100894.47;20727257;28;20570;-80
2023/05/13 05:05:16;;;;;;;13.27;10.47;;;;;;;7.10;72.45;100899.94;20739669;28;20189;-81
2023/05/13 05:15:20;;;;;;;14.07;11.43;;;;;;;6.98;74.98;100931.25;20755983;28;20495;-81
2023/05/13 05:25:26;;;;;;;11.43;10.23;;;;;;;7.32;73.74;100926.22;20726717;28;20197;-77
2023/05/13 05:35:28;;;;;;;11.17;9.53;;;;;;;7.23;73.93;100925.22;20735310;28;20248;-76
2023/05/13 05:45:34;;;;;;;12.57;11.27;;;;;;;7.20;75.02;100917.44;20734588;28;20213;-77
2023/05/13 05:55:38;;;;;;;14.93;11.87;;;;;;;7.48;73.99;100928.78;20728880;28;20279;-76
2023/05/13 06:05:41;;;;;;;14.27;12.77;;;;;;;7.43;74.71;100944.56;20723053;28;20205;-77
2023/05/13 06:15:43;;;;;;;15.27;12.30;;;;;;;7.89;73.95;100942.94;20741043;28;20288;-76
2023/05/13 06:25:46;;;;;;;14.03;12.73;;;;;;;7.88;72.12;100967.41;20711997;28;20190;-76
2023/05/13 06:35:48;;;;;;;13.53;12.23;;;;;;;8.80;68.29;100956.03;20719220;28;20221;-77
2023/05/13 06:45:52;;;;;;;14.67;13.17;;;;;;;9.36;66.11;100949.09;20698440;28;20221;-77
2023/05/13 06:55:55;;;;;;;15.90;13.97;;;;;;;9.59;64.16;100944.31;20693933;28;20228;-77
2023/05/13 07:05:57;;;;;;;16.70;13.10;;;;;;;9.84;63.65;100934.34;20715367;28;20190;-77
2023/05/13 07:16:01;;;;;;;15.80;11.98;;;;;;;9.68;64.07;100930.28;20710820;28;20666;-77
2023/05/13 07:26:03;;;;;;;13.82;11.38;;;;;;;10.30;62.28;100930.28;20742204;28;21170;-78
2023/05/13 07:36:06;;;;;;;12.25;10.98;;;;;;;11.34;57.43;100937.78;20726906;28;20221;-78
2023/05/13 07:46:16;;;;;;;10.93;9.63;;;;;;;11.94;54.00;100931.22;20745602;28;20248;-77
2023/05/13 07:56:23;;;;;;;10.32;9.20;;;;;;;11.87;53.41;100925.28;20731375;28;20221;-77
2023/05/13 08:06:25;;;;;;;9.35;8.25;;;;;;;12.49;51.99;100916.22;20741989;28;20193;-77
2023/05/13 08:16:27;;;;;;;6.72;6.03;;;;;;;12.77;49.02;100911.72;20772166;28;20224;-80
2023/05/13 08:26:29;;;;;;;90.55;65.93;;;;;;;12.94;49.51;100919.28;20817177;28;20848;-81
2023/05/13 08:36:31;;;;;;;8.20;5.15;;;;;;;13.28;46.15;100915.34;20825309;28;20715;-77
2023/05/13 08:46:36;;;;;;;5.18;4.65;;;;;;;14.04;46.61;100909.25;20818010;28;20259;-77
2023/05/13 08:56:38;;;;;;;6.80;4.38;;;;;;;14.05;47.82;100910.91;20834061;28;20620;-77
2023/05/13 09:06:40;;;;;;;7.10;5.03;;;;;;;14.40;44.15;100895.09;20829009;28;20908;-78
2023/05/13 09:16:43;;;;;;;6.05;3.50;;;;;;;14.79;42.01;100904.91;20816633;28;20314;-77
2023/05/13 09:26:45;;;;;;;6.45;3.78;;;;;;;15.63;39.99;100895.69;20814571;28;20258;-77
2023/05/13 09:36:54;;;;;;;4.15;3.75;;;;;;;15.24;40.16;100888.84;20800069;28;20278;-77
2023/05/13 09:46:57;;;;;;;9.18;3.42;;;;;;;15.87;39.92;100872.75;20838064;28;20247;-78
2023/05/13 09:57:00;;;;;;;7.60;4.38;;;;;;;16.20;40.71;100869.56;20835791;28;20521;-78
2023/05/13 10:07:03;;;;;;;3.90;3.42;;;;;;;16.31;39.52;100864.16;20827037;28;20266;-78
2023/05/13 10:17:06;;;;;;;6.00;3.83;;;;;;;16.44;40.21;100858.00;20833330;28;20259;-77
2023/05/13 10:27:10;;;;;;;6.50;3.97;;;;;;;16.54;38.27;100851.72;20814430;28;20192;-77
2023/05/13 10:37:34;;;;;;;5.97;3.35;;;;;;;16.65;38.66;100840.59;20823629;28;20243;-78
2023/05/13 10:47:36;;;;;;;4.82;4.13;;;;;;;16.98;38.42;100834.41;20811667;28;20596;-76
2023/05/13 10:57:39;;;;;;;5.18;3.28;;;;;;;17.01;39.74;100830.81;20819198;28;20246;-77
2023/05/13 11:07:53;;;;;;;5.95;3.50;;;;;;;17.02;36.20;100821.06;20807491;28;20192;-77
2023/05/13 11:17:56;;;;;;;6.00;3.60;;;;;;;17.54;36.67;100819.69;20783380;28;20596;-79
2023/05/13 11:27:58;;;;;;;5.05;3.60;;;;;;;17.46;35.20;100809.34;20745952;28;20215;-79
2023/05/13 11:38:01;;;;;;;6.07;4.10;;;;;;;18.22;34.27;100804.59;20728668;28;20213;-76
2023/05/13 11:48:19;;;;;;;4.50;3.25;;;;;;;18.23;34.68;100789.09;20710848;28;20283;-78
2023/05/13 11:58:22;;;;;;;5.05;2.75;;;;;;;19.15;32.54;100784.72;20754048;28;20580;-78
2023/05/13 12:08:24;;;;;;;3.60;3.05;;;;;;;18.51;33.34;100769.53;20765108;28;20197;-78
2023/05/13 12:18:26;;;;;;;5.85;2.78;;;;;;;17.16;35.26;100795.69;20825157;28;20243;-77
2023/05/13 12:28:28;;;;;;;4.18;3.13;;;;;;;18.62;31.07;100779.13;20877949;28;20185;-76
2023/05/13 12:38:31;;;;;;;7.05;3.45;;;;;;;17.56;33.98;100789.56;20846947;28;20243;-78
2023/05/13 12:48:33;;;;;;;6.78;2.55;;;;;;;17.07;34.19;100794.25;20830423;28;20254;-79
2023/05/13 12:58:35;;;;;;;4.35;2.60;;;;;;;18.12;32.45;100785.25;20816896;28;20209;-77
2023/05/13 13:08:37;;;;;;;6.63;2.53;;;;;;;17.18;33.95;100787.56;20817479;28;20277;-78
2023/05/13 13:18:40;;;;;;;6.90;2.80;;;;;;;18.34;32.93;100779.47;20746910;28;20236;-78
2023/05/13 13:28:43;;;;;;;5.40;4.00;;;;;;;19.45;30.06;100765.44;20755224;28;20197;-78
2023/05/13 13:38:45;;;;;;;5.50;2.83;;;;;;;19.68;31.39;100770.16;20743029;28;20248;-78
2023/05/13 13:48:47;;;;;;;5.28;3.83;;;;;;;17.07;51.01;100777.97;20754282;28;20526;-76
2023/05/13 13:58:49;;;;;;;9.35;3.58;;;;;;;15.61;45.77;100801.28;20731283;28;20221;-78
2023/05/13 14:08:53;;;;;;;5.07;3.42;;;;;;;13.94;48.71;100813.22;20764624;28;20590;-77
2023/05/13 14:18:55;;;;;;;8.63;3.47;;;;;;;13.67;49.51;100832.53;20818729;28;20633;-76
2023/05/13 14:28:57;;;;;;;2.97;2.60;;;;;;;13.34;52.86;100841.06;20794111;28;20485;-77
2023/05/13 14:39:00;;;;;;;5.05;2.53;;;;;;;12.06;58.86;100823.81;20818216;28;20212;-77
2023/05/13 14:49:02;;;;;;;4.90;2.90;;;;;;;12.31;58.44;100820.03;20827752;28;20216;-78
2023/05/13 14:59:04;;;;;;;2.67;2.45;;;;;;;12.91;59.98;100800.94;20782105;28;20220;-78
2023/05/13 15:09:06;;;;;;;7.57;3.53;;;;;;;14.03;57.38;100805.41;20817752;28;20231;-77
2023/05/13 15:19:09;;;;;;;3.58;3.20;;;;;;;14.20;60.46;100805.16;20725083;28;20229;-76
2023/05/13 15:29:11;;;;;;;4.05;3.00;;;;;;;14.62;53.78;100800.06;20741092;28;20189;-78
2023/05/13 15:39:17;;;;;;;4.03;3.15;;;;;;;14.91;51.59;100796.03;20723524;28;20518;-77
2023/05/13 15:49:19;;;;;;;3.53;2.63;;;;;;;15.00;51.85;100776.81;20708354;28;20291;-77
2023/05/13 15:59:21;;;;;;;6.47;2.40;;;;;;;14.78;45.19;100758.31;20682585;28;20271;-77
2023/05/13 16:09:23;;;;;;;2.47;2.22;;;;;;;15.75;44.42;100744.75;20709350;28;20181;-77
2023/05/13 16:19:25;;;;;;;5.00;2.70;;;;;;;16.61;39.74;100737.06;20777291;28;20270;-77
2023/05/13 16:29:27;;;;;;;2.88;2.30;;;;;;;16.66;39.70;100730.25;20789240;28;20538;-77
2023/05/13 16:39:31;;;;;;;5.18;4.47;;;;;;;16.74;37.12;100729.19;20788707;28;20240;-77
2023/05/13 16:49:34;;;;;;;4.72;2.47;;;;;;;16.65;39.56;100749.38;20769496;28;20212;-77
2023/05/13 16:59:37;;;;;;;4.65;2.60;;;;;;;15.15;42.15;100776.03;20791292;28;20236;-78
2023/05/13 17:09:39;;;;;;;4.03;2.40;;;;;;;15.82;42.52;100762.81;20807079;28;20193;-77
2023/05/13 17:19:41;;;;;;;2.25;2.03;;;;;;;15.77;42.12;100770.81;20816869;28;20224;-78
2023/05/13 17:29:43;;;;;;;6.97;2.60;;;;;;;15.78;41.62;100759.06;20832540;28;20598;-80
2023/05/13 17:39:45;;;;;;;2.17;1.98;;;;;;;14.93;42.65;100770.09;20806876;28;20282;-78
2023/05/13 17:49:48;;;;;;;4.82;2.65;;;;;;;15.25;42.07;100771.06;20836229;28;20625;-79
2023/05/13 17:59:51;;;;;;;2.40;2.20;;;;;;;14.99;44.58;100775.19;20826549;28;20271;-78
2023/05/13 18:09:53;;;;;;;3.35;2.40;;;;;;;14.90;46.81;100771.63;20815228;28;20185;-80
2023/05/13 18:19:55;;;;;;;3.22;2.78;;;;;;;14.91;47.25;100773.28;20736597;28;20233;-78
2023/05/13 18:29:57;;;;;;;4.97;3.13;;;;;;;14.43;49.17;100769.41;20745882;28;20193;-79
2023/05/13 18:40:00;;;;;;;7.07;4.20;;;;;;;14.21;50.31;100772.75;20735843;28;20553;-81
2023/05/13 18:50:03;;;;;;;8.40;3.85;;;;;;;14.07;50.25;100787.31;20736352;28;20232;-80
2023/05/13 19:00:05;;;;;;;6.88;5.00;;;;;;;13.60;53.03;100792.56;20721137;28;20243;-83
2023/05/13 19:10:08;;;;;;;5.85;5.13;;;;;;;13.29;52.24;100797.94;20731939;28;20671;-77
2023/05/13 19:20:10;;;;;;;5.32;4.45;;;;;;;12.83;55.06;100805.50;20711852;28;20253;-77
2023/05/13 19:30:12;;;;;;;4.75;4.35;;;;;;;12.80;56.26;100811.88;20734682;28;20279;-77
2023/05/13 19:40:15;;;;;;;15.68;9.85;;;;;;;12.62;59.14;100813.19;20725777;28;20221;-77
2023/05/13 19:50:17;;;;;;;8.23;6.80;;;;;;;12.46;60.41;100820.63;20728912;28;20194;-77
2023/05/13 20:00:19;;;;;;;9.18;6.93;;;;;;;12.37;61.27;100820.69;20730958;28;20275;-77
2023/05/13 20:10:21;;;;;;;9.55;7.60;;;;;;;12.20;61.04;100824.44;20732814;28;20494;-78
2023/05/13 20:20:24;;;;;;;8.07;7.20;;;;;;;12.01;60.61;100826.84;20735906;28;20526;-77
2023/05/13 20:30:26;;;;;;;8.73;6.53;;;;;;;11.52;62.36;100836.84;20722170;28;20460;-77
2023/05/13 20:40:28;;;;;;;8.05;6.60;;;;;;;11.20;63.20;100830.56;20722503;28;20221;-76
2023/05/13 20:50:30;;;;;;;8.88;6.32;;;;;;;11.04;64.57;100829.41;20736720;28;20272;-78
2023/05/13 21:00:33;;;;;;;10.93;7.57;;;;;;;11.08;64.07;100829.59;20719735;28;20245;-77
2023/05/13 21:10:35;;;;;;;13.18;8.55;;;;;;;10.81;64.78;100828.75;20713049;28;20260;-78
2023/05/13 21:20:37;;;;;;;11.60;8.00;;;;;;;10.88;63.99;100823.44;20787031;28;20594;-81
2023/05/13 21:30:39;;;;;;;9.88;6.57;;;;;;;10.48;64.57;100836.00;20792632;28;20224;-81
2023/05/13 21:40:42;;;;;;;7.82;7.03;;;;;;;10.55;64.18;100839.22;20820784;28;20632;-78
2023/05/13 21:50:44;;;;;;;7.57;6.43;;;;;;;10.00;65.81;100836.88;20821686;28;20258;-78
2023/05/13 22:00:46;;;;;;;9.93;8.10;;;;;;;9.63;67.24;100840.19;20827304;28;20228;-77
2023/05/13 22:10:48;;;;;;;11.37;9.17;;;;;;;9.85;66.53;100838.16;20824463;28;20678;-77
2023/05/13 22:20:50;;;;;;;12.90;9.82;;;;;;;9.64;67.03;100839.88;20807811;28;20290;-78
2023/05/13 22:30:54;;;;;;;11.80;9.53;;;;;;;9.57;68.00;100829.03;20795423;28;20193;-78
2023/05/13 22:40:56;;;;;;;8.98;8.00;;;;;;;9.50;67.84;100839.94;20826738;28;20224;-77
2023/05/13 22:50:58;;;;;;;8.02;7.22;;;;;;;9.26;67.82;100839.47;20794796;28;20200;-77
2023/05/13 23:01:00;;;;;;;10.63;7.53;;;;;;;8.97;68.27;100837.09;20823449;28;20216;-77
2023/05/13 23:11:02;;;;;;;8.60;7.67;;;;;;;8.88;68.73;100838.19;20783525;28;20482;-78
2023/05/13 23:21:04;;;;;;;6.97;6.38;;;;;;;8.66;68.39;100837.00;20711643;28;20221;-77
2023/05/13 23:31:06;;;;;;;9.10;7.43;;;;;;;8.92;68.49;100828.75;20742142;28;20656;-77
2023/05/13 23:41:08;;;;;;;8.25;7.45;;;;;;;8.73;68.40;100831.78;20741356;28;20228;-78
2023/05/13 23:51:11;;;;;;;10.57;7.80;;;;;;;8.76;67.76;100814.25;20744657;28;20263;-77
